Latest Coastal Weather Observations for Point Perpendicular

IDN60701

Issued at 7:45 am EST Thursday 18 September 2014 (issued every 10 minutes, with the page automatically refreshed every 10 minutes)

About coastal observations | Map of coastal stations | Coastal observations for NSW | Marine services | Other Formats
Station Details ID: 068151 Name: POINT PERPENDICULAR AWS Lat: -35.09 Lon: 150.80 Height: 85.0 m
Data from the previous 72 hours. | See also: Recent months at Point Perpendicular
Date/Time
EST
Temp

°C
Wind Pressure Rain
since 9am
mm
Weather Cloud Vis
km
Sea
Height
m
Swell
Dir
 
Speed
knots
Gust
knots
hPa Trend Height
m
Period
s
Dir
18/07:30am 11.3 WSW 8 13 1017.5 - 0.0 - - - - - - -
18/07:00am 11.1 W 9 14 1017.1 - 0.0 - - - - - - -
18/06:30am 10.8 W 7 13 1016.8 - 0.0 - - - - - - -
18/06:00am 10.9 W 6 9 1016.2 - 0.0 - - - - - - -
18/05:30am 11.4 W 8 13 1016.0 - 0.0 - - - - - - -
18/05:00am 11.7 W 7 12 1015.7 - 0.0 - - - - - - -
18/04:30am 11.8 W 7 11 1015.3 - 0.0 - - - - - - -
18/04:00am 11.9 WSW 5 8 1015.0 - 0.0 - - - - - - -
18/03:30am 12.5 W 6 12 1014.8 - 0.0 - - - - - - -
18/03:00am 12.7 W 7 9 1014.7 - 0.0 - - - - - - -
18/02:30am 12.9 WSW 6 8 1014.7 - 0.0 - - - - - - -
18/02:00am 13.1 WSW 7 12 1014.8 - 0.0 - - - - - - -
18/01:30am 13.4 WSW 9 14 1014.7 - 0.0 - - - - - - -
18/01:00am 13.3 SW 7 12 1014.6 - 0.0 - - - - - - -
18/12:30am 13.8 W 10 16 1014.0 - 0.0 - - - - - - -
18/12:00am 14.0 W 13 19 1013.9 - 0.0 - - - - - - -
 
Date/Time
EST
Temp

°C
Wind Pressure Rain
since 9am
mm
Weather Cloud Vis
km
Sea
Height
m
Swell
Dir
 
Speed
knots
Gust
knots
hPa Trend Height
m
Period
s
Dir
17/11:30pm 14.1 W 10 16 1013.8 - 0.0 - - - - - - -
17/11:00pm 14.0 WSW 12 18 1013.8 - 0.0 - - - - - - -
17/10:30pm 14.3 W 13 18 1013.4 - 0.0 - - - - - - -
17/10:00pm 14.4 W 11 16 1013.0 - 0.0 - - - - - - -
17/09:30pm 14.5 W 10 16 1012.9 - 0.0 - - - - - - -
17/09:00pm 14.8 W 11 17 1012.4 - 0.0 - - - - - - -
17/08:30pm 14.9 W 13 19 1012.1 - 0.0 - - - - - - -
17/08:00pm 14.9 W 12 18 1011.8 - 0.0 - - - - - - -
17/07:30pm 15.0 W 11 18 1011.7 - 0.0 - - - - - - -
17/07:00pm 15.5 W 12 19 1011.3 - 0.0 - - - - - - -
17/06:30pm 16.0 W 13 19 1010.7 - 0.0 - - - - - - -
17/06:00pm 16.2 W 12 23 1010.3 - 0.0 - - - - - - -
17/05:30pm 16.8 W 15 22 1009.8 - 0.0 - - - - - - -
17/05:05pm 17.2 W 15 25 1009.5 - 0.0 - - - - - - -
17/05:00pm 17.3 W 17 26 1009.4 - 0.0 - - - - - - -
17/04:43pm 17.6 W 15 28 1008.9 - 0.0 - - - - - - -
17/04:30pm 18.2 W 15 24 1009.0 - 0.0 - - - - - - -
17/04:02pm 18.2 W 17 27 1008.7 - 0.0 - - - - - - -
17/04:00pm 18.2 W 17 26 1008.8 - 0.0 - - - - - - -
17/03:30pm 18.4 W 15 25 1008.5 - 0.0 - - - - - - -
17/03:28pm 18.2 W 15 25 1008.4 - 0.0 - - - - - - -
17/03:00pm 18.5 W 15 23 1008.5 - 0.0 - - - - - - -
17/02:30pm 18.6 W 15 25 1008.4 - 0.0 - - - - - - -
17/02:26pm 18.5 W 15 25 1008.4 - 0.0 - - - - - - -
17/02:00pm 18.2 W 14 21 1008.5 - 0.0 - - - - - - -
17/01:30pm 18.6 W 13 19 1008.6 - 0.0 - - - - - - -
17/01:00pm 18.4 W 12 19 1008.8 - 0.0 - - - - - - -
17/12:30pm 18.1 W 11 18 1009.0 - 0.0 - - - - - - -
17/12:00pm 18.4 W 11 17 1009.4 - 0.0 - - - - - - -
17/11:30am 17.9 W 12 18 1009.6 - 0.0 - - - - - - -
17/11:00am 17.8 W 11 16 1010.0 - 0.0 - - - - - - -
17/10:30am 17.4 W 10 16 1010.2 - 0.0 - - - - - - -
17/10:00am 17.3 W 10 15 1010.4 - 0.0 - - - - - - -
17/09:30am 16.6 W 11 17 1010.7 - 0.0 - - - - - - -
17/09:00am 16.2 W 12 17 1010.9 - 5.0 - - - - - - -
17/08:30am 15.7 W 12 17 1011.1 - 5.0 - - - - - - -
17/08:00am 15.2 WNW 10 14 1011.0 - 5.0 - - - - - - -
17/07:30am 14.9 WNW 10 16 1010.7 - 5.0 - - - - - - -
17/07:00am 14.9 WNW 8 13 1010.4 - 5.0 - - - - - - -
17/06:30am 14.9 WNW 7 11 1010.0 - 5.0 - - - - - - -
17/06:00am 14.9 WNW 6 8 1009.9 - 5.0 - - - - - - -
17/05:30am 15.0 WNW 6 9 1009.7 - 5.0 - - - - - - -
17/05:00am 15.0 WNW 5 7 1009.4 - 5.0 - - - - - - -
17/04:30am 14.6 WNW 6 7 1009.0 - 5.0 - - - - - - -
17/04:00am 14.4 WNW 6 8 1009.0 - 5.0 - - - - - - -
17/03:30am 14.4 WNW 5 8 1008.7 - 5.0 - - - - - - -
17/03:00am 14.1 WNW 6 7 1008.5 - 5.0 - - - - - - -
17/02:30am 14.4 W 5 6 1008.4 - 5.0 - - - - - - -
17/02:00am 14.9 W 6 8 1008.6 - 5.0 - - - - - - -
17/01:30am 15.0 W 5 8 1008.7 - 5.0 - - - - - - -
17/01:00am 15.0 W 7 9 1008.9 - 5.0 - - - - - - -
17/12:30am 15.5 W 7 11 1008.8 - 5.0 - - - - - - -
17/12:00am 15.6 W 6 7 1008.4 - 5.0 - - - - - - -
 
Date/Time
EST
Temp

°C
Wind Pressure Rain
since 9am
mm
Weather Cloud Vis
km
Sea
Height
m
Swell
Dir
 
Speed
knots
Gust
knots
hPa Trend Height
m
Period
s
Dir
16/11:30pm 15.7 WNW 5 7 1008.1 - 5.0 - - - - - - -
16/11:00pm 15.8 W 8 14 1008.1 - 5.0 - - - - - - -
16/10:30pm 15.8 W 9 15 1008.1 - 5.0 - - - - - - -
16/10:00pm 16.0 W 11 17 1007.9 - 5.0 - - - - - - -
16/09:30pm 16.2 W 12 19 1007.6 - 5.0 - - - - - - -
16/09:00pm 16.4 WNW 11 17 1007.4 - 5.0 - - - - - - -
16/08:30pm 16.5 WNW 11 16 1007.4 - 5.0 - - - - - - -
16/08:00pm 16.7 WNW 9 13 1007.3 - 5.0 - - - - - - -
16/07:30pm 16.7 WNW 9 16 1007.2 - 5.0 - - - - - - -
16/07:00pm 16.8 NW 8 12 1007.1 - 5.0 - - - - - - -
16/06:30pm 16.9 WNW 6 9 1007.1 - 5.0 - - - - - - -
16/06:00pm 17.6 WNW 9 14 1006.5 - 5.0 - - - - - - -
16/05:30pm 18.3 WNW 8 13 1006.1 - 5.0 - - - - - - -
16/05:00pm 18.6 W 11 19 1005.8 - 5.0 - - - - - - -
16/04:30pm 19.5 W 8 13 1005.5 - 5.0 - - - - - - -
16/04:00pm 19.9 NW 6 11 1005.4 - 5.0 - - - - - - -
16/03:30pm 18.6 N 10 15 1005.3 - 5.0 - - - - - - -
16/03:00pm 17.9 NNE 11 14 1005.5 - 5.0 - - - - - - -
16/02:30pm 18.5 NNE 11 17 1005.6 - 5.0 - - - - - - -
16/02:00pm 16.8 N 10 15 1006.3 - 3.6 - - - - - - -
16/01:30pm 18.9 N 12 19 1006.0 - 0.0 - - - - - - -
16/01:00pm 20.9 N 11 16 1006.2 - 0.0 - - - - - - -
16/12:30pm 21.2 N 11 16 1007.2 - 0.0 - - - - - - -
16/12:00pm 20.6 N 13 18 1007.7 - 0.0 - - - - - - -
16/11:30am 19.9 N 13 22 1008.3 - 0.0 - - - - - - -
16/11:00am 19.9 N 13 19 1009.0 - 0.0 - - - - - - -
16/10:30am 18.3 N 10 14 1009.8 - 0.0 - - - - - - -
16/10:00am 18.5 N 10 17 1009.8 - 0.0 - - - - - - -
16/09:30am 17.2 N 11 17 1010.1 - 0.0 - - - - - - -
16/09:00am 17.8 N 12 18 1010.4 - 4.4 - - - - - - -
16/08:30am 17.0 N 11 17 1010.5 - 4.4 - - - - - - -
16/08:00am 16.3 N 11 15 1010.7 - 4.4 - - - - - - -
16/07:30am 16.2 NNE 12 16 1010.6 - 4.4 - - - - - - -
16/07:00am 15.0 NNE 10 16 1010.6 - 4.4 - - - - - - -
16/06:30am 14.7 NE 10 14 1010.7 - 4.4 - - - - - - -
16/06:00am 14.2 N 6 9 1012.1 - 4.4 - - - - - - -
16/05:30am 14.7 N 7 12 1012.9 - 4.2 - - - - - - -
16/05:00am 14.4 N 8 14 1012.2 - 4.2 - - - - - - -
16/04:30am 14.6 NNE 11 16 1011.7 - 4.2 - - - - - - -
16/04:00am 14.6 N 9 14 1012.0 - 4.2 - - - - - - -
16/03:30am 14.4 NNE 10 13 1011.7 - 4.0 - - - - - - -
16/03:00am 14.7 NNE 9 14 1012.5 - 4.0 - - - - - - -
16/02:30am 14.7 NNE 9 14 1012.6 - 4.0 - - - - - - -
16/02:00am 14.4 NNE 9 12 1012.6 - 4.0 - - - - - - -
16/01:30am 14.3 NNE 5 7 1013.6 - 4.0 - - - - - - -
16/01:00am 14.4 NNE 8 12 1013.9 - 3.8 - - - - - - -
16/12:30am 14.3 NNE 7 11 1014.1 - 3.2 - - - - - - -
16/12:00am 14.2 N 7 9 1014.8 - 2.6 - - - - - - -
 
Date/Time
EST
Temp

°C
Wind Pressure Rain
since 9am
mm
Weather Cloud Vis
km
Sea
Height
m
Swell
Dir
 
Speed
knots
Gust
knots
hPa Trend Height
m
Period
s
Dir
15/11:30pm 14.9 N 7 11 1015.2 - 0.2 - - - - - - -
15/11:00pm 15.5 N 9 13 1015.3 - 0.0 - - - - - - -
15/10:30pm 15.9 N 12 16 1015.3 - 0.0 - - - - - - -
15/10:00pm 15.8 NNE 11 16 1015.3 - 0.0 - - - - - - -
15/09:30pm 15.8 NNE 11 15 1015.7 - 0.0 - - - - - - -
15/09:00pm 15.3 NNE 10 14 1015.8 - 0.0 - - - - - - -
15/08:30pm 15.2 N 9 14 1015.9 - 0.0 - - - - - - -
15/08:00pm 15.2 NNE 10 14 1015.6 - 0.0 - - - - - - -
15/07:30pm 15.3 NNE 9 14 1015.7 - 0.0 - - - - - - -
15/07:00pm 15.7 NNE 10 15 1015.5 - 0.0 - - - - - - -
15/06:30pm 15.6 NNE 8 13 1015.3 - 0.0 - - - - - - -
15/06:00pm 15.5 NE 9 13 1015.3 - 0.0 - - - - - - -
15/05:30pm 16.1 NE 8 12 1015.1 - 0.0 - - - - - - -
15/05:00pm 16.6 NE 10 15 1015.1 - 0.0 - - - - - - -
15/04:30pm 16.7 NE 9 13 1015.0 - 0.0 - - - - - - -
15/04:00pm 17.5 NE 9 15 1015.1 - 0.0 - - - - - - -
15/03:30pm 17.7 NE 9 14 1015.2 - 0.0 - - - - - - -
15/03:00pm 17.5 NE 9 13 1015.2 - 0.0 - - - - - - -
15/02:30pm 18.0 ENE 10 14 1015.3 - 0.0 - - - - - - -
15/02:00pm 17.7 ENE 9 14 1015.4 - 0.0 - - - - - - -
15/01:30pm 18.1 ENE 9 13 1015.8 - 0.0 - - - - - - -
15/01:00pm 18.2 ENE 8 12 1016.2 - 0.0 - - - - - - -
15/12:30pm 17.6 E 8 11 1016.5 - 0.0 - - - - - - -
15/12:00pm 17.7 ENE 7 12 1016.9 - 0.0 - - - - - - -
15/11:30am 17.5 E 7 11 1017.1 - 0.0 - - - - - - -
15/11:00am 15.9 E 6 11 1017.6 - 0.0 - - - - - - -
15/10:30am 15.2 ESE 5 9 1018.0 - 0.0 - - - - - - -
15/10:00am 15.5 N 1 4 1018.0 - 0.0 - - - - - - -
15/09:30am 14.9 S 2 5 1018.3 - 0.0 - - - - - - -
15/09:00am 15.4 WNW 1 5 1018.6 - 0.0 - - - - - - -
15/08:30am 15.0 W 4 6 1018.6 - 0.0 - - - - - - -
15/08:00am 14.5 WSW 2 3 1018.5 - 0.0 - - - - - - -

Other Formats:

Comma delimited format used in spreadsheet applications
http://www.bom.gov.au/fwo/IDN60701/IDN60701.95940.axf

JavaScript Object Notation format (JSON) in row-major order
http://www.bom.gov.au/fwo/IDN60701/IDN60701.95940.json